createdAt,value
2023-04-16T00:00:58.825Z,11.27
2023-04-16T00:03:02.041Z,10.88
2023-04-16T00:05:05.371Z,13.05
2023-04-16T00:07:08.636Z,13.05
2023-04-16T00:09:11.535Z,12.10
2023-04-16T00:11:14.440Z,12.98
2023-04-16T00:13:18.524Z,11.57
2023-04-16T00:15:21.377Z,11.90
2023-04-16T00:17:24.177Z,13.70
2023-04-16T00:19:27.059Z,12.35
2023-04-16T00:21:29.987Z,13.95
2023-04-16T00:23:32.730Z,15.50
2023-04-16T00:25:38.553Z,14.13
2023-04-16T00:27:41.370Z,14.57
2023-04-16T00:29:45.518Z,13.00
2023-04-16T00:31:48.298Z,14.02
2023-04-16T00:33:51.135Z,13.27
2023-04-16T00:35:54.180Z,13.68
2023-04-16T00:37:57.230Z,14.02
2023-04-16T00:40:00.068Z,12.80
2023-04-16T00:42:02.958Z,13.40
2023-04-16T00:44:05.912Z,12.43
2023-04-16T00:46:10.862Z,13.73
2023-04-16T00:48:14.071Z,11.13
2023-04-16T00:50:17.559Z,12.82
2023-04-16T00:52:20.830Z,12.30
2023-04-16T00:54:23.935Z,13.27
2023-04-16T00:56:26.698Z,12.40
2023-04-16T00:58:31.931Z,12.82
2023-04-16T01:00:34.762Z,12.50
2023-04-16T01:02:39.593Z,13.88
2023-04-16T01:06:45.516Z,13.32
2023-04-16T01:08:48.887Z,12.68
2023-04-16T01:10:51.914Z,13.00
2023-04-16T01:12:55.262Z,12.70
2023-04-16T01:14:58.280Z,12.65
2023-04-16T01:17:01.574Z,12.00
2023-04-16T01:19:05.774Z,11.93
2023-04-16T01:21:09.946Z,12.95
2023-04-16T01:23:12.844Z,13.18
2023-04-16T01:25:16.779Z,11.68
2023-04-16T01:27:19.698Z,13.60
2023-04-16T01:29:22.537Z,11.43
2023-04-16T01:31:26.856Z,13.43
2023-04-16T01:33:35.838Z,15.40
2023-04-16T01:35:38.689Z,14.27
2023-04-16T01:37:42.849Z,14.70
2023-04-16T01:39:46.510Z,14.65
2023-04-16T01:41:49.320Z,13.95
2023-04-16T01:43:52.113Z,14.40
2023-04-16T01:46:10.198Z,14.88
2023-04-16T01:48:13.356Z,13.50
2023-04-16T01:50:16.222Z,14.95
2023-04-16T01:52:19.012Z,15.00
2023-04-16T01:54:23.096Z,13.57
2023-04-16T01:56:26.094Z,14.65
2023-04-16T01:58:29.547Z,14.50
2023-04-16T02:00:32.610Z,15.32
2023-04-16T02:02:36.375Z,14.10
2023-04-16T02:04:40.707Z,14.55
2023-04-16T02:06:43.588Z,16.00
2023-04-16T02:08:46.390Z,15.50
2023-04-16T02:10:52.091Z,14.40
2023-04-16T02:12:54.996Z,15.50
2023-04-16T02:14:57.758Z,14.23
2023-04-16T02:17:03.048Z,15.85
2023-04-16T02:19:12.821Z,16.15
2023-04-16T02:21:17.081Z,15.95
2023-04-16T02:23:19.921Z,15.23
2023-04-16T02:25:24.291Z,16.02
2023-04-16T02:27:31.185Z,14.70
2023-04-16T02:29:44.128Z,16.85
2023-04-16T02:31:51.068Z,16.92
2023-04-16T02:33:54.547Z,15.88
2023-04-16T02:35:57.432Z,16.02
2023-04-16T02:38:00.536Z,16.42
2023-04-16T02:40:03.388Z,17.13
2023-04-16T02:42:06.197Z,15.45
2023-04-16T02:44:10.366Z,16.15
2023-04-16T02:46:13.205Z,18.10
2023-04-16T02:48:16.014Z,15.25
2023-04-16T02:50:19.084Z,16.80
2023-04-16T02:52:22.073Z,17.88
2023-04-16T02:54:24.909Z,17.17
2023-04-16T02:56:27.732Z,16.77
2023-04-16T02:58:30.534Z,17.20
2023-04-16T03:00:34.764Z,18.15
2023-04-16T03:02:37.825Z,17.42
2023-04-16T03:04:40.908Z,18.70
2023-04-16T03:06:43.735Z,16.10
2023-04-16T03:08:46.498Z,18.05
2023-04-16T03:10:49.296Z,18.73
2023-04-16T03:12:52.137Z,17.92
2023-04-16T03:14:54.947Z,17.10
2023-04-16T03:16:59.381Z,18.10
2023-04-16T03:19:02.257Z,16.52
2023-04-16T03:21:05.773Z,17.15
2023-04-16T03:23:08.627Z,15.38
2023-04-16T03:25:11.462Z,18.10
2023-04-16T03:27:14.262Z,15.77
2023-04-16T03:29:17.123Z,16.70
2023-04-16T03:31:20.094Z,18.10
2023-04-16T03:33:24.381Z,18.85
2023-04-16T03:35:28.312Z,16.27
2023-04-16T03:37:31.291Z,17.08
2023-04-16T03:39:34.422Z,15.50
2023-04-16T03:41:37.233Z,17.38
2023-04-16T03:43:40.098Z,17.25
2023-04-16T03:45:45.363Z,18.42
2023-04-16T03:47:52.593Z,16.38
2023-04-16T03:49:59.688Z,19.08
2023-04-16T03:52:03.451Z,18.25
2023-04-16T03:54:06.265Z,18.20
2023-04-16T03:56:09.366Z,17.23
2023-04-16T03:58:12.292Z,16.73
2023-04-16T04:00:15.302Z,18.52
2023-04-16T04:02:28.249Z,16.00
2023-04-16T04:04:31.322Z,15.88
2023-04-16T04:06:35.559Z,18.05
2023-04-16T04:08:38.428Z,19.00
2023-04-16T04:10:42.013Z,17.63
2023-04-16T04:12:46.710Z,16.23
2023-04-16T04:14:49.542Z,17.02
2023-04-16T04:16:52.359Z,17.90
2023-04-16T04:18:55.598Z,17.67
2023-04-16T04:20:58.892Z,17.63
2023-04-16T04:23:06.248Z,17.60
2023-04-16T04:25:09.959Z,16.80
2023-04-16T04:27:12.783Z,17.45
2023-04-16T04:29:15.625Z,15.95
2023-04-16T04:31:18.491Z,18.35
2023-04-16T04:33:21.454Z,17.90
2023-04-16T04:35:24.362Z,15.98
2023-04-16T04:37:27.277Z,15.40
2023-04-16T04:39:31.716Z,15.60
2023-04-16T04:41:36.653Z,13.85
2023-04-16T04:43:39.888Z,15.57
2023-04-16T04:45:44.033Z,16.13
2023-04-16T04:47:46.966Z,15.23
2023-04-16T04:49:50.174Z,15.50
2023-04-16T04:51:53.123Z,15.70
2023-04-16T04:53:56.958Z,12.75
2023-04-16T04:56:09.191Z,15.68
2023-04-16T04:58:16.377Z,12.85
2023-04-16T05:00:19.652Z,14.27
2023-04-16T05:02:30.831Z,13.73
2023-04-16T05:04:33.665Z,12.70
2023-04-16T05:06:36.468Z,11.68
2023-04-16T05:08:39.284Z,13.77
2023-04-16T05:10:42.074Z,12.73
2023-04-16T05:12:48.829Z,11.55
2023-04-16T05:14:51.852Z,11.70
2023-04-16T05:16:55.053Z,11.75
2023-04-16T05:18:58.015Z,11.57
2023-04-16T05:21:00.811Z,11.70
2023-04-16T05:23:03.584Z,10.63
2023-04-16T05:25:06.985Z,10.68
2023-04-16T05:27:09.676Z,10.82
2023-04-16T05:29:13.881Z,11.82
2023-04-16T05:31:16.695Z,10.90
2023-04-16T05:33:19.510Z,10.20
2023-04-16T05:35:22.552Z,10.65
2023-04-16T05:37:25.456Z,11.70
2023-04-16T05:39:28.565Z,11.55
2023-04-16T05:41:31.368Z,10.20
2023-04-16T05:43:34.230Z,10.93
2023-04-16T05:45:40.974Z,9.98
2023-04-16T05:47:44.128Z,11.05
2023-04-16T05:49:46.935Z,10.43
2023-04-16T05:51:50.944Z,10.50
2023-04-16T05:53:54.005Z,11.02
2023-04-16T05:55:56.810Z,11.73
2023-04-16T05:57:59.592Z,11.63
2023-04-16T06:00:03.740Z,11.98
2023-04-16T06:02:16.280Z,11.23
2023-04-16T06:04:19.281Z,13.20
2023-04-16T06:06:22.200Z,12.07
2023-04-16T06:08:25.023Z,13.65
2023-04-16T06:10:28.086Z,12.52
2023-04-16T06:12:31.015Z,11.95
2023-04-16T06:14:33.848Z,13.40
2023-04-16T06:16:36.614Z,10.73
2023-04-16T06:18:40.708Z,11.85
2023-04-16T06:20:43.500Z,13.10
2023-04-16T06:22:46.343Z,14.13
2023-04-16T06:24:49.248Z,12.27
2023-04-16T06:26:52.014Z,11.45
2023-04-16T06:28:54.768Z,14.85
2023-04-16T06:30:57.705Z,12.95
2023-04-16T06:33:00.541Z,12.75
2023-04-16T06:35:05.287Z,12.32
2023-04-16T06:37:10.490Z,12.52
2023-04-16T06:39:13.562Z,13.07
2023-04-16T06:41:16.435Z,14.30
2023-04-16T06:43:19.260Z,13.50
2023-04-16T06:45:22.029Z,14.57
2023-04-16T06:47:24.874Z,14.20
2023-04-16T06:49:27.949Z,13.75
2023-04-16T06:51:32.128Z,14.50
2023-04-16T06:53:37.560Z,14.77
2023-04-16T06:55:40.338Z,15.13
2023-04-16T06:57:43.114Z,12.13
2023-04-16T06:59:46.330Z,14.40
2023-04-16T07:01:49.211Z,16.92
2023-04-16T07:03:52.800Z,14.27
2023-04-16T07:05:56.261Z,12.85
2023-04-16T07:08:00.969Z,14.18
2023-04-16T07:10:05.430Z,15.57
2023-04-16T07:12:08.423Z,15.85
2023-04-16T07:14:11.555Z,14.25
2023-04-16T07:16:14.348Z,15.57
2023-04-16T07:18:18.777Z,15.57
2023-04-16T07:20:23.746Z,14.27
2023-04-16T07:22:26.610Z,15.50
2023-04-16T07:24:30.728Z,15.50
2023-04-16T07:26:33.508Z,15.48
2023-04-16T07:28:36.386Z,13.50
2023-04-16T07:30:39.188Z,14.02
2023-04-16T07:32:41.913Z,17.02
2023-04-16T07:34:44.796Z,15.15
2023-04-16T07:36:47.577Z,16.88
2023-04-16T07:38:50.364Z,14.10
2023-04-16T07:40:54.490Z,13.70
2023-04-16T07:42:57.475Z,13.00
2023-04-16T07:45:00.291Z,14.20
2023-04-16T07:47:04.872Z,16.88
2023-04-16T07:49:08.674Z,15.25
2023-04-16T07:51:11.648Z,14.65
2023-04-16T07:53:14.502Z,15.95
2023-04-16T07:55:17.269Z,15.52
2023-04-16T07:57:21.530Z,14.27
2023-04-16T07:59:24.729Z,13.38
2023-04-16T08:01:27.877Z,14.23
2023-04-16T08:03:30.939Z,14.35
2023-04-16T08:05:33.884Z,14.02
2023-04-16T08:07:36.689Z,14.27
2023-04-16T08:09:48.759Z,13.65
2023-04-16T08:11:51.639Z,16.63
2023-04-16T08:13:55.885Z,14.30
2023-04-16T08:15:58.681Z,14.13
2023-04-16T08:18:01.547Z,14.07
2023-04-16T08:20:04.884Z,13.45
2023-04-16T08:22:07.885Z,14.27
2023-04-16T08:24:10.862Z,12.52
2023-04-16T08:26:13.713Z,13.40
2023-04-16T08:28:17.434Z,12.75
2023-04-16T08:30:22.171Z,13.40
2023-04-16T08:34:27.685Z,12.25
2023-04-16T08:36:31.292Z,12.20
2023-04-16T08:38:34.274Z,11.75
2023-04-16T08:40:40.030Z,11.60
2023-04-16T08:42:49.630Z,12.05
2023-04-16T08:44:58.467Z,12.98
2023-04-16T08:47:02.843Z,10.75
2023-04-16T08:49:08.468Z,11.73
2023-04-16T08:51:12.911Z,11.00
2023-04-16T08:53:20.224Z,12.48
2023-04-16T08:55:27.333Z,11.50
2023-04-16T08:57:34.521Z,11.65
2023-04-16T08:59:39.158Z,10.77
2023-04-16T09:01:42.520Z,9.73
2023-04-16T09:03:48.564Z,11.60
2023-04-16T09:05:51.734Z,10.32
2023-04-16T09:07:54.788Z,10.48
2023-04-16T09:10:00.486Z,10.63
2023-04-16T09:12:03.736Z,11.43
2023-04-16T09:14:11.735Z,11.55
2023-04-16T09:16:15.548Z,11.35
2023-04-16T09:18:18.593Z,11.60
2023-04-16T09:20:22.923Z,10.90
2023-04-16T09:22:25.768Z,10.85
2023-04-16T09:24:29.938Z,12.07
2023-04-16T09:26:33.343Z,11.60
2023-04-16T09:28:43.578Z,10.88
2023-04-16T09:30:46.434Z,11.45
2023-04-16T09:32:49.862Z,11.15
2023-04-16T09:34:56.179Z,12.15
2023-04-16T09:37:15.979Z,11.48
2023-04-16T09:39:20.718Z,12.30
2023-04-16T09:41:27.285Z,11.70
2023-04-16T09:43:32.928Z,13.75
2023-04-16T09:45:49.649Z,14.10
2023-04-16T09:47:52.491Z,12.95
2023-04-16T09:50:00.127Z,14.73
2023-04-16T09:52:04.375Z,13.35
2023-04-16T09:54:07.433Z,13.13
2023-04-16T09:56:11.435Z,14.02
2023-04-16T09:58:19.776Z,13.85
2023-04-16T10:00:24.504Z,15.32
2023-04-16T10:02:28.113Z,13.75
2023-04-16T10:04:31.050Z,15.45
2023-04-16T10:06:33.805Z,14.65
2023-04-16T10:08:37.862Z,15.77
2023-04-16T10:10:41.569Z,13.27
2023-04-16T10:12:44.593Z,14.38
2023-04-16T10:14:49.467Z,14.27
2023-04-16T10:16:53.277Z,15.90
2023-04-16T10:18:57.574Z,13.45
2023-04-16T10:21:00.863Z,15.45
2023-04-16T10:23:04.230Z,15.38
2023-04-16T10:25:09.897Z,14.10
2023-04-16T10:27:12.661Z,15.02
2023-04-16T10:29:15.530Z,15.07
2023-04-16T10:31:18.625Z,13.63
2023-04-16T10:33:22.940Z,15.50
2023-04-16T10:35:26.662Z,13.77
2023-04-16T10:37:32.476Z,15.27
2023-04-16T10:39:37.310Z,15.68
2023-04-16T10:41:43.562Z,14.38
2023-04-16T10:43:48.020Z,14.50
2023-04-16T10:45:50.777Z,14.93
2023-04-16T10:47:57.011Z,16.08
2023-04-16T10:49:59.981Z,15.63
2023-04-16T10:52:13.340Z,15.20
2023-04-16T10:54:26.204Z,16.10
2023-04-16T10:56:30.487Z,15.75
2023-04-16T10:58:37.135Z,16.33
2023-04-16T11:00:50.670Z,17.10
2023-04-16T11:02:54.670Z,15.52
2023-04-16T11:04:58.612Z,15.93
2023-04-16T11:07:14.609Z,16.55
2023-04-16T11:09:51.045Z,15.65
2023-04-16T11:11:54.214Z,15.63
2023-04-16T11:13:58.412Z,16.63
2023-04-16T11:16:02.244Z,16.67
2023-04-16T11:18:06.938Z,15.60
2023-04-16T11:20:18.843Z,16.83
2023-04-16T11:22:23.202Z,16.13
2023-04-16T11:24:30.680Z,17.30
2023-04-16T11:26:33.452Z,17.08
2023-04-16T11:28:36.740Z,15.82
2023-04-16T11:30:41.633Z,16.88
2023-04-16T11:34:48.248Z,17.42
2023-04-16T11:36:53.044Z,16.48
2023-04-16T11:41:05.499Z,16.65
2023-04-16T11:43:15.369Z,16.88
2023-04-16T11:45:19.387Z,17.42
2023-04-16T11:47:24.456Z,19.92
2023-04-16T11:49:31.010Z,18.05
2023-04-16T11:51:33.831Z,17.27
2023-04-16T11:53:37.626Z,17.23
2023-04-16T11:55:45.661Z,16.40
2023-04-16T11:57:48.730Z,16.60
2023-04-16T12:00:01.569Z,17.85
2023-04-16T12:02:15.589Z,16.77
2023-04-16T12:04:21.283Z,18.95
2023-04-16T12:06:24.503Z,18.90
2023-04-16T12:08:31.093Z,15.05
2023-04-16T12:10:35.954Z,15.52
2023-04-16T12:14:51.357Z,17.13
2023-04-16T12:16:55.284Z,17.52
2023-04-16T12:19:03.965Z,16.63
2023-04-16T12:21:08.206Z,16.52
2023-04-16T12:23:23.772Z,18.58
2023-04-16T12:25:26.668Z,15.60
2023-04-16T12:27:43.233Z,17.13
2023-04-16T12:29:46.174Z,16.58
2023-04-16T12:31:50.137Z,18.33
2023-04-16T12:34:03.036Z,16.77
2023-04-16T12:36:19.893Z,17.60
2023-04-16T12:38:24.551Z,17.60
2023-04-16T12:42:35.629Z,15.52
2023-04-16T12:44:38.583Z,15.73
2023-04-16T12:46:41.988Z,18.08
2023-04-16T12:48:44.824Z,16.67
2023-04-16T12:50:48.061Z,17.02
2023-04-16T12:52:52.453Z,17.20
2023-04-16T12:54:55.379Z,20.15
2023-04-16T12:56:58.246Z,18.23
2023-04-16T12:59:01.140Z,18.00
2023-04-16T13:01:03.962Z,19.92
2023-04-16T13:03:07.217Z,18.83
2023-04-16T13:05:10.445Z,15.48
2023-04-16T13:07:13.282Z,20.35
2023-04-16T13:09:18.136Z,21.48
2023-04-16T13:11:21.490Z,18.23
2023-04-16T13:13:24.268Z,18.88
2023-04-16T13:15:27.050Z,19.58
2023-04-16T13:17:31.172Z,20.15
2023-04-16T13:19:33.954Z,19.67
2023-04-16T13:21:36.786Z,19.63
2023-04-16T13:23:39.610Z,19.98
2023-04-16T13:25:43.751Z,21.10
2023-04-16T13:27:46.551Z,20.80
2023-04-16T13:29:49.394Z,19.40
2023-04-16T13:31:52.340Z,22.17
2023-04-16T13:33:55.716Z,22.48
2023-04-16T13:35:58.582Z,19.88
2023-04-16T13:38:01.381Z,19.88
2023-04-16T13:40:04.394Z,19.52
2023-04-16T13:42:08.585Z,20.38
2023-04-16T13:44:11.334Z,18.17
2023-04-16T13:46:14.178Z,21.33
2023-04-16T13:48:17.790Z,19.10
2023-04-16T13:50:20.803Z,20.50
2023-04-16T13:52:23.581Z,23.00
2023-04-16T13:54:26.429Z,22.55
2023-04-16T13:56:29.334Z,22.20
2023-04-16T13:58:33.801Z,19.10
2023-04-16T14:00:36.655Z,21.75
2023-04-16T14:02:39.765Z,22.25
2023-04-16T14:04:42.696Z,23.70
2023-04-16T14:06:45.480Z,22.05
2023-04-16T14:08:48.335Z,25.42
2023-04-16T14:10:51.729Z,21.25
2023-04-16T14:13:13.318Z,22.40
2023-04-16T14:15:17.440Z,24.13
2023-04-16T14:17:20.372Z,21.17
2023-04-16T14:19:23.213Z,21.85
2023-04-16T14:21:26.976Z,22.85
2023-04-16T14:23:29.774Z,23.00
2023-04-16T14:25:32.673Z,23.48
2023-04-16T14:27:35.831Z,21.65
2023-04-16T14:29:39.036Z,22.20
2023-04-16T14:31:43.261Z,21.17
2023-04-16T14:33:46.267Z,21.10
2023-04-16T14:35:50.231Z,21.85
2023-04-16T14:37:53.262Z,21.10
2023-04-16T14:39:56.428Z,22.17
2023-04-16T14:41:59.332Z,22.13
2023-04-16T14:44:04.129Z,21.77
2023-04-16T14:46:07.042Z,22.10
2023-04-16T14:48:11.254Z,23.42
2023-04-16T14:50:14.691Z,23.20
2023-04-16T14:52:17.811Z,21.00
2023-04-16T14:54:20.961Z,22.88
2023-04-16T14:56:23.910Z,21.05
2023-04-16T14:58:27.081Z,21.65
2023-04-16T15:00:29.893Z,21.98
2023-04-16T15:02:32.808Z,21.17
2023-04-16T15:04:37.728Z,21.63
2023-04-16T15:06:40.660Z,21.35
2023-04-16T15:08:43.474Z,21.65
2023-04-16T15:10:46.298Z,22.02
2023-04-16T15:12:49.097Z,22.40
2023-04-16T15:14:51.960Z,24.92
2023-04-16T15:16:54.904Z,23.73
2023-04-16T15:18:57.826Z,23.67
2023-04-16T15:21:02.023Z,22.17
2023-04-16T15:23:04.900Z,24.50
2023-04-16T15:25:08.619Z,24.05
2023-04-16T15:27:12.438Z,21.48
2023-04-16T15:29:15.744Z,22.27
2023-04-16T15:31:20.666Z,23.90
2023-04-16T15:33:23.635Z,21.85
2023-04-16T15:35:26.491Z,21.42
2023-04-16T15:37:30.847Z,22.35
2023-04-16T15:39:33.657Z,20.40
2023-04-16T15:41:46.945Z,21.10
2023-04-16T15:44:00.210Z,21.25
2023-04-16T15:46:03.224Z,21.38
2023-04-16T15:48:09.104Z,22.00
2023-04-16T15:50:12.288Z,19.20
2023-04-16T15:52:15.390Z,22.00
2023-04-16T15:54:20.048Z,21.58
2023-04-16T15:56:22.898Z,22.63
2023-04-16T15:58:26.077Z,19.58
2023-04-16T16:00:29.826Z,22.48
2023-04-16T16:02:32.790Z,21.80
2023-04-16T16:04:35.968Z,21.10
2023-04-16T16:06:38.945Z,21.80
2023-04-16T16:08:43.565Z,19.35
2023-04-16T16:10:47.763Z,21.38
2023-04-16T16:12:51.713Z,19.48
2023-04-16T16:14:54.968Z,21.85
2023-04-16T16:16:57.787Z,20.67
2023-04-16T16:19:00.720Z,22.33
2023-04-16T16:21:03.535Z,20.15
2023-04-16T16:23:06.364Z,21.20
2023-04-16T16:25:10.249Z,19.40
2023-04-16T16:27:14.464Z,20.73
2023-04-16T16:29:19.505Z,21.77
2023-04-16T16:31:22.344Z,19.65
2023-04-16T16:33:25.315Z,20.38
2023-04-16T16:35:28.211Z,18.17
2023-04-16T16:37:31.099Z,21.33
2023-04-16T16:39:35.216Z,19.52
2023-04-16T16:41:41.944Z,20.48
2023-04-16T16:43:46.124Z,20.02
2023-04-16T16:45:48.994Z,20.13
2023-04-16T16:47:51.830Z,18.63
2023-04-16T16:49:54.637Z,17.92
2023-04-16T16:51:57.522Z,17.70
2023-04-16T16:54:00.287Z,19.58
2023-04-16T16:56:03.018Z,18.50
2023-04-16T16:58:06.215Z,17.67
2023-04-16T17:00:15.130Z,16.52
2023-04-16T17:02:17.988Z,18.38
2023-04-16T17:04:21.043Z,18.45
2023-04-16T17:06:24.024Z,17.60
2023-04-16T17:08:26.836Z,16.70
2023-04-16T17:10:29.939Z,18.05
2023-04-16T17:12:32.766Z,18.90
2023-04-16T17:14:35.908Z,17.90
2023-04-16T17:16:40.297Z,15.02
2023-04-16T17:18:43.428Z,16.95
2023-04-16T17:20:46.193Z,17.90
2023-04-16T17:22:49.020Z,16.20
2023-04-16T17:24:51.816Z,16.40
2023-04-16T17:26:55.095Z,17.42
2023-04-16T17:28:59.225Z,17.52
2023-04-16T17:31:03.456Z,20.42
2023-04-16T17:33:07.721Z,18.38
2023-04-16T17:35:10.968Z,19.70
2023-04-16T17:37:14.065Z,17.05
2023-04-16T17:39:17.153Z,15.73
2023-04-16T17:41:21.024Z,16.30
2023-04-16T17:43:24.032Z,15.77
2023-04-16T17:45:26.831Z,18.02
2023-04-16T17:47:29.808Z,18.17
2023-04-16T17:49:33.915Z,16.45
2023-04-16T17:51:36.709Z,18.65
2023-04-16T17:53:39.564Z,17.13
2023-04-16T17:55:50.971Z,18.63
2023-04-16T17:57:53.791Z,18.85
2023-04-16T17:59:56.645Z,16.40
2023-04-16T18:01:59.610Z,18.58
2023-04-16T18:04:02.697Z,19.90
2023-04-16T18:06:07.097Z,17.90
2023-04-16T18:08:09.883Z,17.30
2023-04-16T18:10:12.683Z,18.33
2023-04-16T18:12:16.285Z,17.92
2023-04-16T18:14:21.214Z,16.75
2023-04-16T18:16:24.112Z,18.75
2023-04-16T18:18:27.116Z,17.35
2023-04-16T18:20:30.032Z,17.50
2023-04-16T18:22:34.203Z,15.48
2023-04-16T18:24:37.229Z,16.27
2023-04-16T18:26:41.278Z,14.98
2023-04-16T18:28:44.192Z,17.63
2023-04-16T18:30:49.560Z,17.33
2023-04-16T18:33:16.572Z,17.00
2023-04-16T18:35:15.377Z,17.30
2023-04-16T18:37:18.274Z,18.85
2023-04-16T18:39:24.608Z,19.42
2023-04-16T18:41:29.622Z,18.25
2023-04-16T18:43:32.582Z,17.23
2023-04-16T18:45:36.088Z,19.63
2023-04-16T18:47:39.878Z,18.48
2023-04-16T18:49:42.807Z,19.63
2023-04-16T18:51:45.611Z,19.88
2023-04-16T18:53:48.432Z,18.15
2023-04-16T18:55:55.277Z,19.40
2023-04-16T18:57:58.110Z,18.17
2023-04-16T19:00:00.916Z,16.70
2023-04-16T19:02:03.943Z,19.80
2023-04-16T19:04:06.881Z,17.75
2023-04-16T19:06:09.797Z,18.13
2023-04-16T19:08:12.581Z,17.20
2023-04-16T19:10:15.352Z,18.08
2023-04-16T19:12:19.823Z,17.95
2023-04-16T19:14:22.780Z,17.70
2023-04-16T19:16:25.911Z,17.42
2023-04-16T19:18:28.813Z,16.52
2023-04-16T19:20:34.919Z,17.75
2023-04-16T19:22:37.715Z,27.88
2023-04-16T19:24:40.572Z,16.80
2023-04-16T19:26:43.357Z,15.73
2023-04-16T19:28:47.460Z,19.63
2023-04-16T19:30:51.311Z,18.70
2023-04-16T19:32:55.506Z,19.63
2023-04-16T19:34:58.519Z,19.08
2023-04-16T19:37:01.286Z,19.63
2023-04-16T19:39:04.848Z,18.42
2023-04-16T19:41:07.655Z,18.38
2023-04-16T19:43:10.451Z,18.13
2023-04-16T19:45:14.687Z,18.30
2023-04-16T19:47:17.561Z,19.05
2023-04-16T19:49:20.353Z,16.42
2023-04-16T19:51:23.158Z,18.45
2023-04-16T19:53:25.929Z,17.15
2023-04-16T19:55:28.681Z,17.83
2023-04-16T19:57:31.560Z,17.08
2023-04-16T19:59:34.462Z,19.05
2023-04-16T20:03:41.308Z,19.00
2023-04-16T20:05:44.182Z,17.90
2023-04-16T20:07:47.007Z,18.38
2023-04-16T20:09:49.752Z,17.30
2023-04-16T20:11:52.551Z,18.15
2023-04-16T20:13:56.110Z,18.98
2023-04-16T20:15:58.897Z,18.65
2023-04-16T20:18:03.056Z,17.38
2023-04-16T20:20:09.949Z,17.15
2023-04-16T20:22:12.755Z,17.00
2023-04-16T20:24:15.593Z,18.50
2023-04-16T20:26:18.628Z,17.20
2023-04-16T20:28:22.051Z,16.10
2023-04-16T20:30:29.041Z,17.10
2023-04-16T20:32:31.830Z,16.58
2023-04-16T20:34:36.488Z,16.17
2023-04-16T20:36:39.259Z,17.15
2023-04-16T20:38:43.531Z,16.15
2023-04-16T20:40:46.998Z,16.13
2023-04-16T20:42:51.992Z,17.55
2023-04-16T20:44:56.491Z,17.85
2023-04-16T20:46:59.983Z,19.05
2023-04-16T20:49:02.794Z,16.95
2023-04-16T20:51:09.337Z,17.70
2023-04-16T20:53:12.996Z,17.40
2023-04-16T20:55:16.155Z,14.70
2023-04-16T20:57:18.973Z,16.00
2023-04-16T20:59:21.816Z,15.82
2023-04-16T21:01:24.625Z,16.70
2023-04-16T21:03:27.723Z,15.98
2023-04-16T21:05:30.834Z,16.02
2023-04-16T21:07:34.944Z,16.60
2023-04-16T21:09:37.698Z,16.38
2023-04-16T21:11:40.564Z,16.98
2023-04-16T21:13:43.455Z,16.35
2023-04-16T21:15:46.423Z,16.95
2023-04-16T21:17:49.357Z,16.48
2023-04-16T21:19:52.171Z,15.70
2023-04-16T21:21:54.983Z,16.50
2023-04-16T21:23:59.328Z,17.35
2023-04-16T21:26:02.144Z,16.60
2023-04-16T21:28:05.156Z,17.10
2023-04-16T21:30:09.471Z,17.42
2023-04-16T21:32:12.254Z,17.63
2023-04-16T21:34:15.025Z,18.08
2023-04-16T21:36:17.782Z,18.90
2023-04-16T21:38:21.053Z,18.15
2023-04-16T21:40:25.314Z,19.23
2023-04-16T21:42:28.161Z,17.70
2023-04-16T21:44:30.957Z,17.88
2023-04-16T21:46:33.813Z,17.73
2023-04-16T21:48:36.608Z,17.92
2023-04-16T21:50:39.921Z,17.42
2023-04-16T21:52:46.414Z,16.65
2023-04-16T21:54:49.137Z,17.83
2023-04-16T21:56:53.301Z,17.85
2023-04-16T21:58:56.129Z,17.35
2023-04-16T22:00:58.916Z,17.30
2023-04-16T22:03:01.952Z,16.17
2023-04-16T22:05:05.164Z,15.57
2023-04-16T22:07:09.743Z,15.88
2023-04-16T22:09:12.540Z,16.05
2023-04-16T22:11:15.450Z,15.98
2023-04-16T22:13:19.577Z,14.98
2023-04-16T22:15:22.390Z,15.80
2023-04-16T22:17:27.544Z,17.42
2023-04-16T22:19:30.537Z,16.17
2023-04-16T22:21:33.315Z,17.20
2023-04-16T22:23:36.098Z,17.15
2023-04-16T22:25:39.289Z,16.50
2023-04-16T22:27:42.066Z,16.10
2023-04-16T22:29:46.272Z,17.38
2023-04-16T22:31:49.126Z,17.52
2023-04-16T22:33:51.955Z,17.73
2023-04-16T22:35:54.720Z,18.48
2023-04-16T22:37:57.688Z,17.20
2023-04-16T22:40:00.640Z,15.45
2023-04-16T22:42:03.473Z,17.55
2023-04-16T22:44:06.294Z,18.05
2023-04-16T22:46:10.421Z,17.33
2023-04-16T22:48:13.307Z,16.55
2023-04-16T22:50:16.130Z,17.15
2023-04-16T22:52:18.918Z,17.50
2023-04-16T22:54:21.721Z,16.85
2023-04-16T22:56:28.569Z,17.33
2023-04-16T22:58:31.492Z,18.63
2023-04-16T23:00:34.320Z,18.25
2023-04-16T23:02:38.623Z,17.75
2023-04-16T23:04:41.504Z,17.40
2023-04-16T23:06:44.474Z,18.00
2023-04-16T23:08:47.333Z,18.52
2023-04-16T23:10:50.390Z,16.95
2023-04-16T23:12:53.546Z,18.08
2023-04-16T23:14:56.861Z,16.88
2023-04-16T23:16:59.810Z,17.85
2023-04-16T23:19:03.917Z,17.35
2023-04-16T23:21:06.995Z,16.73
2023-04-16T23:23:09.860Z,17.88
2023-04-16T23:25:12.685Z,17.63
2023-04-16T23:27:15.531Z,18.33
2023-04-16T23:29:18.269Z,17.75
2023-04-16T23:31:21.094Z,18.85
2023-04-16T23:33:24.116Z,17.92
2023-04-16T23:35:28.223Z,17.30
2023-04-16T23:37:30.984Z,17.80
2023-04-16T23:39:33.930Z,18.70
2023-04-16T23:41:36.713Z,17.80
2023-04-16T23:43:40.633Z,18.20
2023-04-16T23:45:44.750Z,18.05
2023-04-16T23:47:47.664Z,17.70
2023-04-16T23:49:50.694Z,19.05
2023-04-16T23:51:54.794Z,18.80
2023-04-16T23:53:57.611Z,18.58
2023-04-16T23:56:00.393Z,18.55
2023-04-16T23:58:04.333Z,16.55
